sensor_id;sensor_type;location;lat;lon;timestamp;P1;durP1;ratioP1;P2;durP2;ratioP2
3307;SDS011;1666;48.898;9.182;2022-09-01T00:00:48;15.57;;;14.00;;
3307;SDS011;1666;48.898;9.182;2022-09-01T00:03:19;15.00;;;13.45;;
3307;SDS011;1666;48.898;9.182;2022-09-01T00:05:52;15.68;;;13.45;;
3307;SDS011;1666;48.898;9.182;2022-09-01T00:08:22;16.35;;;14.40;;
3307;SDS011;1666;48.898;9.182;2022-09-01T00:10:52;16.77;;;13.10;;
3307;SDS011;1666;48.898;9.182;2022-09-01T00:13:22;14.40;;;12.55;;
3307;SDS011;1666;48.898;9.182;2022-09-01T00:15:55;14.23;;;12.82;;
3307;SDS011;1666;48.898;9.182;2022-09-01T00:18:25;15.07;;;13.38;;
3307;SDS011;1666;48.898;9.182;2022-09-01T00:20:55;15.85;;;13.32;;
3307;SDS011;1666;48.898;9.182;2022-09-01T00:23:25;13.20;;;11.85;;
3307;SDS011;1666;48.898;9.182;2022-09-01T00:25:56;14.20;;;12.65;;
3307;SDS011;1666;48.898;9.182;2022-09-01T00:28:26;13.63;;;12.32;;
3307;SDS011;1666;48.898;9.182;2022-09-01T00:30:58;18.95;;;13.23;;
3307;SDS011;1666;48.898;9.182;2022-09-01T00:33:29;17.50;;;14.15;;
3307;SDS011;1666;48.898;9.182;2022-09-01T00:36:00;15.52;;;13.88;;
3307;SDS011;1666;48.898;9.182;2022-09-01T00:38:31;14.95;;;13.45;;
3307;SDS011;1666;48.898;9.182;2022-09-01T00:41:01;13.52;;;12.23;;
3307;SDS011;1666;48.898;9.182;2022-09-01T00:43:36;15.02;;;13.25;;
3307;SDS011;1666;48.898;9.182;2022-09-01T00:46:14;14.73;;;12.70;;
3307;SDS011;1666;48.898;9.182;2022-09-01T00:48:52;16.55;;;14.40;;
3307;SDS011;1666;48.898;9.182;2022-09-01T00:51:25;15.02;;;13.43;;
3307;SDS011;1666;48.898;9.182;2022-09-01T00:53:56;14.63;;;13.13;;
3307;SDS011;1666;48.898;9.182;2022-09-01T00:56:28;15.32;;;13.05;;
3307;SDS011;1666;48.898;9.182;2022-09-01T00:59:02;15.60;;;13.57;;
3307;SDS011;1666;48.898;9.182;2022-09-01T01:01:37;15.95;;;13.27;;
3307;SDS011;1666;48.898;9.182;2022-09-01T01:04:07;15.25;;;13.75;;
3307;SDS011;1666;48.898;9.182;2022-09-01T01:06:40;15.32;;;13.75;;
3307;SDS011;1666;48.898;9.182;2022-09-01T01:09:15;16.27;;;14.50;;
3307;SDS011;1666;48.898;9.182;2022-09-01T01:11:46;14.73;;;13.18;;
3307;SDS011;1666;48.898;9.182;2022-09-01T01:14:17;17.95;;;12.88;;
3307;SDS011;1666;48.898;9.182;2022-09-01T01:16:50;17.33;;;13.23;;
3307;SDS011;1666;48.898;9.182;2022-09-01T01:19:22;13.85;;;12.35;;
3307;SDS011;1666;48.898;9.182;2022-09-01T01:22:13;14.55;;;12.82;;
3307;SDS011;1666;48.898;9.182;2022-09-01T01:25:14;15.05;;;12.70;;
3307;SDS011;1666;48.898;9.182;2022-09-01T01:27:44;16.73;;;13.40;;
3307;SDS011;1666;48.898;9.182;2022-09-01T01:30:15;15.60;;;13.23;;
3307;SDS011;1666;48.898;9.182;2022-09-01T01:32:46;14.88;;;13.18;;
3307;SDS011;1666;48.898;9.182;2022-09-01T01:35:17;14.00;;;12.60;;
3307;SDS011;1666;48.898;9.182;2022-09-01T01:37:50;13.65;;;12.32;;
3307;SDS011;1666;48.898;9.182;2022-09-01T01:40:23;15.85;;;12.70;;
3307;SDS011;1666;48.898;9.182;2022-09-01T01:42:54;14.27;;;12.77;;
3307;SDS011;1666;48.898;9.182;2022-09-01T01:45:26;14.55;;;13.05;;
3307;SDS011;1666;48.898;9.182;2022-09-01T01:47:57;15.48;;;13.27;;
3307;SDS011;1666;48.898;9.182;2022-09-01T01:50:34;16.25;;;13.15;;
3307;SDS011;1666;48.898;9.182;2022-09-01T01:53:06;15.00;;;13.18;;
3307;SDS011;1666;48.898;9.182;2022-09-01T01:55:41;15.10;;;13.30;;
3307;SDS011;1666;48.898;9.182;2022-09-01T01:58:11;16.50;;;12.93;;
3307;SDS011;1666;48.898;9.182;2022-09-01T02:00:41;14.55;;;13.07;;
3307;SDS011;1666;48.898;9.182;2022-09-01T02:03:13;14.25;;;12.60;;
3307;SDS011;1666;48.898;9.182;2022-09-01T02:05:45;16.05;;;13.77;;
3307;SDS011;1666;48.898;9.182;2022-09-01T02:08:16;14.52;;;12.85;;
3307;SDS011;1666;48.898;9.182;2022-09-01T02:10:51;14.25;;;12.75;;
3307;SDS011;1666;48.898;9.182;2022-09-01T02:13:23;14.35;;;12.85;;
3307;SDS011;1666;48.898;9.182;2022-09-01T02:15:57;16.63;;;13.90;;
3307;SDS011;1666;48.898;9.182;2022-09-01T02:18:30;15.27;;;13.65;;
3307;SDS011;1666;48.898;9.182;2022-09-01T02:21:03;14.65;;;13.10;;
3307;SDS011;1666;48.898;9.182;2022-09-01T02:23:41;15.63;;;13.95;;
3307;SDS011;1666;48.898;9.182;2022-09-01T02:26:14;17.02;;;14.65;;
3307;SDS011;1666;48.898;9.182;2022-09-01T02:28:45;16.98;;;14.57;;
3307;SDS011;1666;48.898;9.182;2022-09-01T02:31:20;16.08;;;14.35;;
3307;SDS011;1666;48.898;9.182;2022-09-01T02:33:53;17.45;;;15.02;;
3307;SDS011;1666;48.898;9.182;2022-09-01T02:36:23;20.45;;;15.20;;
3307;SDS011;1666;48.898;9.182;2022-09-01T02:38:54;18.38;;;14.98;;
3307;SDS011;1666;48.898;9.182;2022-09-01T02:41:26;16.70;;;14.40;;
3307;SDS011;1666;48.898;9.182;2022-09-01T02:44:00;17.27;;;15.35;;
3307;SDS011;1666;48.898;9.182;2022-09-01T02:46:37;17.77;;;14.63;;
3307;SDS011;1666;48.898;9.182;2022-09-01T02:49:09;16.38;;;14.57;;
3307;SDS011;1666;48.898;9.182;2022-09-01T02:51:46;20.40;;;15.73;;
3307;SDS011;1666;48.898;9.182;2022-09-01T02:56:53;16.63;;;14.65;;
3307;SDS011;1666;48.898;9.182;2022-09-01T02:59:25;16.50;;;14.77;;
3307;SDS011;1666;48.898;9.182;2022-09-01T03:01:56;17.92;;;15.48;;
3307;SDS011;1666;48.898;9.182;2022-09-01T03:04:26;17.98;;;14.80;;
3307;SDS011;1666;48.898;9.182;2022-09-01T03:07:00;15.55;;;13.95;;
3307;SDS011;1666;48.898;9.182;2022-09-01T03:09:31;16.90;;;15.10;;
3307;SDS011;1666;48.898;9.182;2022-09-01T03:12:05;17.15;;;15.05;;
3307;SDS011;1666;48.898;9.182;2022-09-01T03:14:36;18.02;;;15.23;;
3307;SDS011;1666;48.898;9.182;2022-09-01T03:17:05;19.52;;;14.82;;
3307;SDS011;1666;48.898;9.182;2022-09-01T03:19:35;18.40;;;16.10;;
3307;SDS011;1666;48.898;9.182;2022-09-01T03:22:09;17.80;;;15.82;;
3307;SDS011;1666;48.898;9.182;2022-09-01T03:24:39;19.10;;;15.88;;
3307;SDS011;1666;48.898;9.182;2022-09-01T03:27:12;17.38;;;15.57;;
3307;SDS011;1666;48.898;9.182;2022-09-01T03:29:42;19.63;;;15.60;;
3307;SDS011;1666;48.898;9.182;2022-09-01T03:32:11;17.55;;;15.70;;
3307;SDS011;1666;48.898;9.182;2022-09-01T03:34:42;18.73;;;16.08;;
3307;SDS011;1666;48.898;9.182;2022-09-01T03:37:11;17.95;;;16.05;;
3307;SDS011;1666;48.898;9.182;2022-09-01T03:39:41;17.58;;;15.73;;
3307;SDS011;1666;48.898;9.182;2022-09-01T03:42:18;18.52;;;15.75;;
3307;SDS011;1666;48.898;9.182;2022-09-01T03:44:51;19.42;;;15.77;;
3307;SDS011;1666;48.898;9.182;2022-09-01T03:47:21;19.20;;;16.30;;
3307;SDS011;1666;48.898;9.182;2022-09-01T03:49:52;21.50;;;15.77;;
3307;SDS011;1666;48.898;9.182;2022-09-01T03:52:22;17.85;;;15.82;;
3307;SDS011;1666;48.898;9.182;2022-09-01T03:54:56;17.60;;;15.70;;
3307;SDS011;1666;48.898;9.182;2022-09-01T03:57:29;18.25;;;16.02;;
3307;SDS011;1666;48.898;9.182;2022-09-01T03:59:59;18.95;;;16.15;;
3307;SDS011;1666;48.898;9.182;2022-09-01T04:02:30;20.98;;;17.20;;
3307;SDS011;1666;48.898;9.182;2022-09-01T04:05:00;19.23;;;17.23;;
3307;SDS011;1666;48.898;9.182;2022-09-01T04:07:33;19.15;;;16.67;;
3307;SDS011;1666;48.898;9.182;2022-09-01T04:10:04;21.55;;;17.60;;
3307;SDS011;1666;48.898;9.182;2022-09-01T04:12:39;21.15;;;17.20;;
3307;SDS011;1666;48.898;9.182;2022-09-01T04:15:10;21.80;;;17.42;;
3307;SDS011;1666;48.898;9.182;2022-09-01T04:17:42;20.63;;;18.40;;
3307;SDS011;1666;48.898;9.182;2022-09-01T04:20:25;21.75;;;18.35;;
3307;SDS011;1666;48.898;9.182;2022-09-01T04:22:55;24.02;;;18.55;;
3307;SDS011;1666;48.898;9.182;2022-09-01T04:25:25;20.02;;;17.92;;
3307;SDS011;1666;48.898;9.182;2022-09-01T04:27:57;22.02;;;17.90;;
3307;SDS011;1666;48.898;9.182;2022-09-01T04:30:29;22.67;;;18.45;;
3307;SDS011;1666;48.898;9.182;2022-09-01T04:32:59;21.27;;;19.05;;
3307;SDS011;1666;48.898;9.182;2022-09-01T04:35:29;21.17;;;18.65;;
3307;SDS011;1666;48.898;9.182;2022-09-01T04:38:03;21.05;;;18.77;;
3307;SDS011;1666;48.898;9.182;2022-09-01T04:40:36;23.25;;;19.65;;
3307;SDS011;1666;48.898;9.182;2022-09-01T04:43:09;24.30;;;19.73;;
3307;SDS011;1666;48.898;9.182;2022-09-01T04:45:38;24.05;;;18.48;;
3307;SDS011;1666;48.898;9.182;2022-09-01T04:48:09;22.25;;;18.58;;
3307;SDS011;1666;48.898;9.182;2022-09-01T04:50:40;23.25;;;18.83;;
3307;SDS011;1666;48.898;9.182;2022-09-01T04:53:10;25.90;;;20.63;;
3307;SDS011;1666;48.898;9.182;2022-09-01T04:55:41;25.13;;;19.55;;
3307;SDS011;1666;48.898;9.182;2022-09-01T04:58:17;23.10;;;18.92;;
3307;SDS011;1666;48.898;9.182;2022-09-01T05:00:48;22.77;;;20.33;;
3307;SDS011;1666;48.898;9.182;2022-09-01T05:03:21;25.10;;;20.42;;
3307;SDS011;1666;48.898;9.182;2022-09-01T05:05:51;22.42;;;19.40;;
3307;SDS011;1666;48.898;9.182;2022-09-01T05:08:23;24.13;;;19.63;;
3307;SDS011;1666;48.898;9.182;2022-09-01T05:13:31;22.98;;;19.63;;
3307;SDS011;1666;48.898;9.182;2022-09-01T05:16:05;24.88;;;20.85;;
3307;SDS011;1666;48.898;9.182;2022-09-01T05:18:39;20.95;;;18.30;;
3307;SDS011;1666;48.898;9.182;2022-09-01T05:21:10;21.42;;;17.40;;
3307;SDS011;1666;48.898;9.182;2022-09-01T05:23:42;21.95;;;19.25;;
3307;SDS011;1666;48.898;9.182;2022-09-01T05:26:14;20.65;;;17.65;;
3307;SDS011;1666;48.898;9.182;2022-09-01T05:28:49;21.88;;;19.15;;
3307;SDS011;1666;48.898;9.182;2022-09-01T05:31:21;23.17;;;19.83;;
3307;SDS011;1666;48.898;9.182;2022-09-01T05:33:53;25.13;;;19.52;;
3307;SDS011;1666;48.898;9.182;2022-09-01T05:36:24;23.60;;;19.63;;
3307;SDS011;1666;48.898;9.182;2022-09-01T05:38:59;23.00;;;19.35;;
3307;SDS011;1666;48.898;9.182;2022-09-01T05:41:30;25.20;;;20.58;;
3307;SDS011;1666;48.898;9.182;2022-09-01T05:44:03;22.88;;;19.85;;
3307;SDS011;1666;48.898;9.182;2022-09-01T05:46:35;24.83;;;20.70;;
3307;SDS011;1666;48.898;9.182;2022-09-01T05:49:08;25.95;;;21.05;;
3307;SDS011;1666;48.898;9.182;2022-09-01T05:51:42;28.63;;;22.15;;
3307;SDS011;1666;48.898;9.182;2022-09-01T05:54:17;27.63;;;21.95;;
3307;SDS011;1666;48.898;9.182;2022-09-01T05:56:51;26.27;;;20.60;;
3307;SDS011;1666;48.898;9.182;2022-09-01T05:59:40;25.33;;;20.77;;
3307;SDS011;1666;48.898;9.182;2022-09-01T06:02:12;26.23;;;20.42;;
3307;SDS011;1666;48.898;9.182;2022-09-01T06:04:43;27.65;;;21.02;;
3307;SDS011;1666;48.898;9.182;2022-09-01T06:07:13;26.17;;;19.92;;
3307;SDS011;1666;48.898;9.182;2022-09-01T06:09:50;26.55;;;20.50;;
3307;SDS011;1666;48.898;9.182;2022-09-01T06:12:21;26.63;;;20.90;;
3307;SDS011;1666;48.898;9.182;2022-09-01T06:14:54;26.45;;;21.17;;
3307;SDS011;1666;48.898;9.182;2022-09-01T06:17:26;27.83;;;20.83;;
3307;SDS011;1666;48.898;9.182;2022-09-01T06:20:02;26.65;;;20.58;;
3307;SDS011;1666;48.898;9.182;2022-09-01T06:22:37;26.02;;;20.42;;
3307;SDS011;1666;48.898;9.182;2022-09-01T06:25:08;27.95;;;21.40;;
3307;SDS011;1666;48.898;9.182;2022-09-01T06:27:38;25.95;;;20.10;;
3307;SDS011;1666;48.898;9.182;2022-09-01T06:30:13;26.58;;;20.35;;
3307;SDS011;1666;48.898;9.182;2022-09-01T06:32:49;25.23;;;19.20;;
3307;SDS011;1666;48.898;9.182;2022-09-01T06:35:20;26.73;;;19.27;;
3307;SDS011;1666;48.898;9.182;2022-09-01T06:37:55;26.45;;;20.05;;
3307;SDS011;1666;48.898;9.182;2022-09-01T06:40:25;26.83;;;18.90;;
3307;SDS011;1666;48.898;9.182;2022-09-01T06:42:55;29.05;;;20.52;;
3307;SDS011;1666;48.898;9.182;2022-09-01T06:45:30;29.02;;;19.98;;
3307;SDS011;1666;48.898;9.182;2022-09-01T06:48:00;25.20;;;19.52;;
3307;SDS011;1666;48.898;9.182;2022-09-01T06:50:30;24.27;;;18.50;;
3307;SDS011;1666;48.898;9.182;2022-09-01T06:53:20;31.65;;;19.25;;
3307;SDS011;1666;48.898;9.182;2022-09-01T06:55:59;23.55;;;18.38;;
3307;SDS011;1666;48.898;9.182;2022-09-01T06:58:30;21.10;;;17.13;;
3307;SDS011;1666;48.898;9.182;2022-09-01T07:01:07;26.40;;;17.73;;
3307;SDS011;1666;48.898;9.182;2022-09-01T07:03:41;22.90;;;17.10;;
3307;SDS011;1666;48.898;9.182;2022-09-01T07:06:13;20.50;;;16.08;;
3307;SDS011;1666;48.898;9.182;2022-09-01T07:09:03;19.05;;;15.23;;
3307;SDS011;1666;48.898;9.182;2022-09-01T07:11:53;20.80;;;14.68;;
3307;SDS011;1666;48.898;9.182;2022-09-01T07:14:43;14.45;;;12.52;;
3307;SDS011;1666;48.898;9.182;2022-09-01T07:17:37;23.40;;;13.25;;
3307;SDS011;1666;48.898;9.182;2022-09-01T07:20:09;15.27;;;11.75;;
3307;SDS011;1666;48.898;9.182;2022-09-01T07:22:49;14.68;;;11.52;;
3307;SDS011;1666;48.898;9.182;2022-09-01T07:25:36;16.02;;;12.43;;
3307;SDS011;1666;48.898;9.182;2022-09-01T07:28:28;13.07;;;11.55;;
3307;SDS011;1666;48.898;9.182;2022-09-01T07:31:02;15.98;;;12.77;;
3307;SDS011;1666;48.898;9.182;2022-09-01T07:33:57;14.00;;;10.75;;
3307;SDS011;1666;48.898;9.182;2022-09-01T07:36:49;17.98;;;10.48;;
3307;SDS011;1666;48.898;9.182;2022-09-01T07:39:42;15.07;;;10.18;;
3307;SDS011;1666;48.898;9.182;2022-09-01T07:42:33;11.40;;;9.68;;
3307;SDS011;1666;48.898;9.182;2022-09-01T07:45:24;13.13;;;10.65;;
3307;SDS011;1666;48.898;9.182;2022-09-01T07:47:54;10.45;;;8.90;;
3307;SDS011;1666;48.898;9.182;2022-09-01T07:50:31;10.35;;;8.55;;
3307;SDS011;1666;48.898;9.182;2022-09-01T07:53:23;10.80;;;9.07;;
3307;SDS011;1666;48.898;9.182;2022-09-01T07:55:56;11.00;;;8.93;;
3307;SDS011;1666;48.898;9.182;2022-09-01T07:58:28;17.00;;;10.73;;
3307;SDS011;1666;48.898;9.182;2022-09-01T08:00:59;11.05;;;9.40;;
3307;SDS011;1666;48.898;9.182;2022-09-01T08:03:29;9.98;;;8.52;;
3307;SDS011;1666;48.898;9.182;2022-09-01T08:06:04;10.70;;;9.32;;
3307;SDS011;1666;48.898;9.182;2022-09-01T08:08:36;10.60;;;9.00;;
3307;SDS011;1666;48.898;9.182;2022-09-01T08:11:07;11.43;;;8.55;;
3307;SDS011;1666;48.898;9.182;2022-09-01T08:13:37;10.48;;;9.05;;
3307;SDS011;1666;48.898;9.182;2022-09-01T08:16:08;12.45;;;8.68;;
3307;SDS011;1666;48.898;9.182;2022-09-01T08:18:43;9.65;;;8.13;;
3307;SDS011;1666;48.898;9.182;2022-09-01T08:21:18;10.55;;;8.25;;
3307;SDS011;1666;48.898;9.182;2022-09-01T08:23:53;9.75;;;8.75;;
3307;SDS011;1666;48.898;9.182;2022-09-01T08:26:24;9.95;;;8.10;;
3307;SDS011;1666;48.898;9.182;2022-09-01T08:28:54;10.73;;;8.50;;
3307;SDS011;1666;48.898;9.182;2022-09-01T08:31:24;11.95;;;9.02;;
3307;SDS011;1666;48.898;9.182;2022-09-01T08:33:56;10.15;;;8.07;;
3307;SDS011;1666;48.898;9.182;2022-09-01T08:36:29;9.90;;;8.60;;
3307;SDS011;1666;48.898;9.182;2022-09-01T08:39:00;10.00;;;8.68;;
3307;SDS011;1666;48.898;9.182;2022-09-01T08:41:35;10.30;;;9.15;;
3307;SDS011;1666;48.898;9.182;2022-09-01T08:44:17;11.80;;;8.88;;
3307;SDS011;1666;48.898;9.182;2022-09-01T08:46:58;10.80;;;8.25;;
3307;SDS011;1666;48.898;9.182;2022-09-01T08:49:40;10.00;;;8.87;;
3307;SDS011;1666;48.898;9.182;2022-09-01T08:52:18;9.35;;;7.88;;
3307;SDS011;1666;48.898;9.182;2022-09-01T08:54:55;8.80;;;7.50;;
3307;SDS011;1666;48.898;9.182;2022-09-01T08:57:30;8.63;;;7.10;;
3307;SDS011;1666;48.898;9.182;2022-09-01T09:00:02;8.93;;;7.38;;
3307;SDS011;1666;48.898;9.182;2022-09-01T09:02:44;8.85;;;7.95;;
3307;SDS011;1666;48.898;9.182;2022-09-01T09:05:24;9.38;;;7.95;;
3307;SDS011;1666;48.898;9.182;2022-09-01T09:08:11;8.75;;;7.68;;
3307;SDS011;1666;48.898;9.182;2022-09-01T09:10:59;9.63;;;7.65;;
3307;SDS011;1666;48.898;9.182;2022-09-01T09:13:34;8.07;;;7.07;;
3307;SDS011;1666;48.898;9.182;2022-09-01T09:16:15;18.73;;;14.55;;
3307;SDS011;1666;48.898;9.182;2022-09-01T09:21:22;7.43;;;6.25;;
3307;SDS011;1666;48.898;9.182;2022-09-01T09:24:01;8.07;;;6.35;;
3307;SDS011;1666;48.898;9.182;2022-09-01T09:26:47;9.45;;;6.65;;
3307;SDS011;1666;48.898;9.182;2022-09-01T09:29:17;7.40;;;6.60;;
3307;SDS011;1666;48.898;9.182;2022-09-01T09:31:48;8.82;;;6.47;;
3307;SDS011;1666;48.898;9.182;2022-09-01T09:34:32;6.88;;;6.03;;
3307;SDS011;1666;48.898;9.182;2022-09-01T09:40:06;6.82;;;6.13;;
3307;SDS011;1666;48.898;9.182;2022-09-01T09:42:41;7.97;;;5.85;;
3307;SDS011;1666;48.898;9.182;2022-09-01T09:45:28;6.97;;;5.60;;
3307;SDS011;1666;48.898;9.182;2022-09-01T09:48:03;11.23;;;8.20;;
3307;SDS011;1666;48.898;9.182;2022-09-01T09:50:36;6.22;;;5.55;;
3307;SDS011;1666;48.898;9.182;2022-09-01T09:53:10;6.20;;;5.70;;
3307;SDS011;1666;48.898;9.182;2022-09-01T09:55:53;5.45;;;4.93;;
3307;SDS011;1666;48.898;9.182;2022-09-01T09:58:32;6.00;;;5.32;;
3307;SDS011;1666;48.898;9.182;2022-09-01T10:01:07;5.57;;;4.97;;
3307;SDS011;1666;48.898;9.182;2022-09-01T10:03:44;6.10;;;4.93;;
3307;SDS011;1666;48.898;9.182;2022-09-01T10:06:28;5.45;;;4.80;;
3307;SDS011;1666;48.898;9.182;2022-09-01T10:09:00;5.63;;;4.97;;
3307;SDS011;1666;48.898;9.182;2022-09-01T10:11:38;5.13;;;4.53;;
3307;SDS011;1666;48.898;9.182;2022-09-01T10:14:10;5.18;;;4.68;;
3307;SDS011;1666;48.898;9.182;2022-09-01T10:17:07;4.53;;;4.13;;
3307;SDS011;1666;48.898;9.182;2022-09-01T10:19:46;7.90;;;4.60;;
3307;SDS011;1666;48.898;9.182;2022-09-01T10:22:19;4.10;;;3.80;;
3307;SDS011;1666;48.898;9.182;2022-09-01T10:24:51;4.13;;;3.55;;
3307;SDS011;1666;48.898;9.182;2022-09-01T10:27:24;5.25;;;4.47;;
3307;SDS011;1666;48.898;9.182;2022-09-01T10:30:03;6.20;;;4.40;;
3307;SDS011;1666;48.898;9.182;2022-09-01T10:32:43;5.45;;;3.53;;
3307;SDS011;1666;48.898;9.182;2022-09-01T10:35:22;4.53;;;4.13;;
3307;SDS011;1666;48.898;9.182;2022-09-01T10:37:55;5.97;;;5.13;;
3307;SDS011;1666;48.898;9.182;2022-09-01T10:40:34;7.22;;;4.78;;
3307;SDS011;1666;48.898;9.182;2022-09-01T10:43:24;5.15;;;3.60;;
3307;SDS011;1666;48.898;9.182;2022-09-01T10:46:07;4.30;;;3.47;;
3307;SDS011;1666;48.898;9.182;2022-09-01T10:48:41;5.25;;;3.58;;
3307;SDS011;1666;48.898;9.182;2022-09-01T10:57:27;6.25;;;3.80;;
3307;SDS011;1666;48.898;9.182;2022-09-01T11:06:31;5.22;;;4.47;;
3307;SDS011;1666;48.898;9.182;2022-09-01T11:09:39;4.70;;;4.30;;
3307;SDS011;1666;48.898;9.182;2022-09-01T11:12:14;5.28;;;3.60;;
3307;SDS011;1666;48.898;9.182;2022-09-01T11:18:09;5.63;;;4.22;;
3307;SDS011;1666;48.898;9.182;2022-09-01T11:20:44;4.38;;;3.95;;
3307;SDS011;1666;48.898;9.182;2022-09-01T11:23:20;3.85;;;3.55;;
3307;SDS011;1666;48.898;9.182;2022-09-01T11:25:53;6.05;;;3.60;;
3307;SDS011;1666;48.898;9.182;2022-09-01T11:28:44;6.50;;;4.05;;
3307;SDS011;1666;48.898;9.182;2022-09-01T11:31:18;4.90;;;4.25;;
3307;SDS011;1666;48.898;9.182;2022-09-01T11:33:58;4.07;;;3.67;;
3307;SDS011;1666;48.898;9.182;2022-09-01T11:36:45;4.97;;;3.72;;
3307;SDS011;1666;48.898;9.182;2022-09-01T11:39:30;4.47;;;4.05;;
3307;SDS011;1666;48.898;9.182;2022-09-01T11:42:05;4.30;;;3.90;;
3307;SDS011;1666;48.898;9.182;2022-09-01T11:44:41;4.22;;;3.70;;
3307;SDS011;1666;48.898;9.182;2022-09-01T11:47:19;4.65;;;3.97;;
3307;SDS011;1666;48.898;9.182;2022-09-01T11:49:55;3.97;;;3.55;;
3307;SDS011;1666;48.898;9.182;2022-09-01T11:52:28;7.03;;;4.18;;
3307;SDS011;1666;48.898;9.182;2022-09-01T11:55:01;3.80;;;3.47;;
3307;SDS011;1666;48.898;9.182;2022-09-01T11:57:33;4.40;;;3.92;;
3307;SDS011;1666;48.898;9.182;2022-09-01T12:00:06;4.22;;;3.83;;
3307;SDS011;1666;48.898;9.182;2022-09-01T12:02:43;19.63;;;4.45;;
3307;SDS011;1666;48.898;9.182;2022-09-01T12:05:30;5.15;;;3.65;;
3307;SDS011;1666;48.898;9.182;2022-09-01T12:08:04;3.83;;;3.53;;
3307;SDS011;1666;48.898;9.182;2022-09-01T12:10:40;7.20;;;3.92;;
3307;SDS011;1666;48.898;9.182;2022-09-01T12:13:11;4.05;;;3.28;;
3307;SDS011;1666;48.898;9.182;2022-09-01T12:15:51;3.95;;;3.22;;
3307;SDS011;1666;48.898;9.182;2022-09-01T12:18:43;4.70;;;3.47;;
3307;SDS011;1666;48.898;9.182;2022-09-01T12:21:20;4.07;;;3.13;;
3307;SDS011;1666;48.898;9.182;2022-09-01T12:23:51;6.97;;;6.28;;
3307;SDS011;1666;48.898;9.182;2022-09-01T12:26:22;3.60;;;3.30;;
3307;SDS011;1666;48.898;9.182;2022-09-01T12:28:54;5.22;;;3.60;;
3307;SDS011;1666;48.898;9.182;2022-09-01T12:31:25;3.60;;;3.30;;
3307;SDS011;1666;48.898;9.182;2022-09-01T12:33:55;4.07;;;3.50;;
3307;SDS011;1666;48.898;9.182;2022-09-01T12:36:30;4.00;;;3.60;;
3307;SDS011;1666;48.898;9.182;2022-09-01T12:42:00;3.90;;;3.50;;
3307;SDS011;1666;48.898;9.182;2022-09-01T12:44:33;3.55;;;3.25;;
3307;SDS011;1666;48.898;9.182;2022-09-01T12:47:13;3.35;;;3.05;;
3307;SDS011;1666;48.898;9.182;2022-09-01T12:50:04;3.42;;;3.13;;
3307;SDS011;1666;48.898;9.182;2022-09-01T12:52:42;3.30;;;3.00;;
3307;SDS011;1666;48.898;9.182;2022-09-01T12:55:19;3.67;;;2.78;;
3307;SDS011;1666;48.898;9.182;2022-09-01T12:58:10;3.97;;;3.50;;
3307;SDS011;1666;48.898;9.182;2022-09-01T13:00:53;3.80;;;3.50;;
3307;SDS011;1666;48.898;9.182;2022-09-01T13:03:25;5.47;;;3.53;;
3307;SDS011;1666;48.898;9.182;2022-09-01T13:05:58;4.07;;;3.75;;
3307;SDS011;1666;48.898;9.182;2022-09-01T13:08:33;5.95;;;4.63;;
3307;SDS011;1666;48.898;9.182;2022-09-01T13:11:04;4.82;;;3.75;;
3307;SDS011;1666;48.898;9.182;2022-09-01T13:13:37;5.55;;;4.10;;
3307;SDS011;1666;48.898;9.182;2022-09-01T13:16:08;5.45;;;3.72;;
3307;SDS011;1666;48.898;9.182;2022-09-01T13:18:40;4.55;;;3.83;;
3307;SDS011;1666;48.898;9.182;2022-09-01T13:21:31;4.43;;;3.78;;
3307;SDS011;1666;48.898;9.182;2022-09-01T13:24:25;4.43;;;4.03;;
3307;SDS011;1666;48.898;9.182;2022-09-01T13:26:57;4.35;;;3.88;;
3307;SDS011;1666;48.898;9.182;2022-09-01T13:29:47;5.63;;;3.78;;
3307;SDS011;1666;48.898;9.182;2022-09-01T13:32:18;4.95;;;3.92;;
3307;SDS011;1666;48.898;9.182;2022-09-01T13:34:50;3.58;;;3.28;;
3307;SDS011;1666;48.898;9.182;2022-09-01T13:37:21;6.55;;;3.30;;
3307;SDS011;1666;48.898;9.182;2022-09-01T13:39:54;3.72;;;3.42;;
3307;SDS011;1666;48.898;9.182;2022-09-01T13:42:24;4.30;;;3.20;;
3307;SDS011;1666;48.898;9.182;2022-09-01T13:44:54;3.40;;;3.10;;
3307;SDS011;1666;48.898;9.182;2022-09-01T13:47:24;3.97;;;3.13;;
3307;SDS011;1666;48.898;9.182;2022-09-01T13:49:55;4.60;;;3.17;;
3307;SDS011;1666;48.898;9.182;2022-09-01T13:55:23;4.25;;;3.53;;
3307;SDS011;1666;48.898;9.182;2022-09-01T13:57:55;3.17;;;2.88;;
3307;SDS011;1666;48.898;9.182;2022-09-01T14:00:27;4.15;;;3.35;;
3307;SDS011;1666;48.898;9.182;2022-09-01T14:03:02;4.10;;;3.30;;
3307;SDS011;1666;48.898;9.182;2022-09-01T14:05:34;2.90;;;2.70;;
3307;SDS011;1666;48.898;9.182;2022-09-01T14:08:06;2.92;;;2.70;;
3307;SDS011;1666;48.898;9.182;2022-09-01T14:10:40;3.70;;;3.40;;
3307;SDS011;1666;48.898;9.182;2022-09-01T14:13:12;4.28;;;3.35;;
3307;SDS011;1666;48.898;9.182;2022-09-01T14:15:42;3.40;;;3.10;;
3307;SDS011;1666;48.898;9.182;2022-09-01T14:18:13;5.50;;;2.95;;
3307;SDS011;1666;48.898;9.182;2022-09-01T14:20:46;3.72;;;2.90;;
3307;SDS011;1666;48.898;9.182;2022-09-01T14:23:17;3.25;;;2.95;;
3307;SDS011;1666;48.898;9.182;2022-09-01T14:25:50;3.20;;;2.90;;
3307;SDS011;1666;48.898;9.182;2022-09-01T14:28:20;4.10;;;2.72;;
3307;SDS011;1666;48.898;9.182;2022-09-01T14:30:50;3.40;;;3.10;;
3307;SDS011;1666;48.898;9.182;2022-09-01T14:33:19;5.18;;;3.33;;
3307;SDS011;1666;48.898;9.182;2022-09-01T14:35:52;3.83;;;3.53;;
3307;SDS011;1666;48.898;9.182;2022-09-01T14:38:22;3.53;;;3.17;;
3307;SDS011;1666;48.898;9.182;2022-09-01T14:40:55;3.80;;;2.83;;
3307;SDS011;1666;48.898;9.182;2022-09-01T14:43:24;3.45;;;3.13;;
3307;SDS011;1666;48.898;9.182;2022-09-01T14:46:01;3.67;;;2.80;;
3307;SDS011;1666;48.898;9.182;2022-09-01T14:48:36;6.10;;;3.10;;
3307;SDS011;1666;48.898;9.182;2022-09-01T14:51:07;6.18;;;3.20;;
3307;SDS011;1666;48.898;9.182;2022-09-01T14:53:37;3.65;;;3.00;;
3307;SDS011;1666;48.898;9.182;2022-09-01T14:56:10;3.80;;;3.35;;
3307;SDS011;1666;48.898;9.182;2022-09-01T14:58:43;3.55;;;3.10;;
3307;SDS011;1666;48.898;9.182;2022-09-01T15:01:14;8.88;;;8.07;;
3307;SDS011;1666;48.898;9.182;2022-09-01T15:03:59;4.35;;;3.33;;
3307;SDS011;1666;48.898;9.182;2022-09-01T15:06:30;4.57;;;3.47;;
3307;SDS011;1666;48.898;9.182;2022-09-01T15:09:00;3.55;;;3.22;;
3307;SDS011;1666;48.898;9.182;2022-09-01T15:11:33;3.22;;;2.92;;
3307;SDS011;1666;48.898;9.182;2022-09-01T15:14:11;4.03;;;3.28;;
3307;SDS011;1666;48.898;9.182;2022-09-01T15:16:41;4.63;;;2.55;;
3307;SDS011;1666;48.898;9.182;2022-09-01T15:19:12;3.10;;;2.80;;
3307;SDS011;1666;48.898;9.182;2022-09-01T15:21:43;3.60;;;3.28;;
3307;SDS011;1666;48.898;9.182;2022-09-01T15:24:17;5.28;;;2.78;;
3307;SDS011;1666;48.898;9.182;2022-09-01T15:26:51;2.80;;;2.60;;
3307;SDS011;1666;48.898;9.182;2022-09-01T15:29:21;4.28;;;2.95;;
3307;SDS011;1666;48.898;9.182;2022-09-01T15:31:52;8.63;;;7.68;;
3307;SDS011;1666;48.898;9.182;2022-09-01T15:34:22;4.40;;;3.55;;
3307;SDS011;1666;48.898;9.182;2022-09-01T15:36:52;3.88;;;3.15;;
3307;SDS011;1666;48.898;9.182;2022-09-01T15:39:22;6.13;;;2.95;;
3307;SDS011;1666;48.898;9.182;2022-09-01T15:42:06;3.72;;;2.90;;
3307;SDS011;1666;48.898;9.182;2022-09-01T15:44:36;3.22;;;2.95;;
3307;SDS011;1666;48.898;9.182;2022-09-01T15:47:06;4.10;;;2.78;;
3307;SDS011;1666;48.898;9.182;2022-09-01T15:49:36;4.22;;;2.92;;
3307;SDS011;1666;48.898;9.182;2022-09-01T15:52:06;6.18;;;3.00;;
3307;SDS011;1666;48.898;9.182;2022-09-01T15:54:36;2.97;;;2.78;;
3307;SDS011;1666;48.898;9.182;2022-09-01T15:57:09;3.08;;;2.85;;
3307;SDS011;1666;48.898;9.182;2022-09-01T15:59:39;2.75;;;2.53;;
3307;SDS011;1666;48.898;9.182;2022-09-01T16:02:10;4.15;;;3.10;;
3307;SDS011;1666;48.898;9.182;2022-09-01T16:04:43;3.72;;;3.33;;
3307;SDS011;1666;48.898;9.182;2022-09-01T16:07:13;3.15;;;2.60;;
3307;SDS011;1666;48.898;9.182;2022-09-01T16:09:43;3.75;;;2.60;;
3307;SDS011;1666;48.898;9.182;2022-09-01T16:12:15;4.20;;;2.95;;
3307;SDS011;1666;48.898;9.182;2022-09-01T16:14:46;4.50;;;2.60;;
3307;SDS011;1666;48.898;9.182;2022-09-01T16:17:19;21.58;;;3.55;;